createdAt,value
2022-12-26T00:00:38.746Z,1008.1
2022-12-26T00:05:15.232Z,1008.11
2022-12-26T00:08:36.183Z,1008.1
2022-12-26T00:12:35.978Z,1008.04
2022-12-26T00:16:36.150Z,1008.09
2022-12-26T00:20:35.474Z,1008.28
2022-12-26T00:24:36.033Z,1008.26
2022-12-26T00:28:35.644Z,1008.23
2022-12-26T00:32:35.800Z,1008.31
2022-12-26T00:36:35.219Z,1008.33
2022-12-26T00:40:36.155Z,1008.34
2022-12-26T00:44:35.792Z,1008.29
2022-12-26T00:48:35.549Z,1008.17
2022-12-26T00:52:35.256Z,1008.1
2022-12-26T00:56:35.070Z,1008.01
2022-12-26T01:00:38.216Z,1008.01
2022-12-26T01:04:35.015Z,1008.02
2022-12-26T01:08:58.660Z,1008.06
2022-12-26T01:12:35.564Z,1008.11
2022-12-26T01:16:35.701Z,1008.13
2022-12-26T01:20:35.245Z,1008.1
2022-12-26T01:24:35.752Z,1008.08
2022-12-26T01:28:35.149Z,1007.96
2022-12-26T01:32:35.952Z,1008.17
2022-12-26T01:36:35.517Z,1008.06
2022-12-26T01:40:35.366Z,1008.13
2022-12-26T01:44:35.973Z,1008.32
2022-12-26T01:48:35.486Z,1008.22
2022-12-26T01:52:35.214Z,1008.28
2022-12-26T01:56:35.900Z,1008.19
2022-12-26T02:00:39.224Z,1008.07
2022-12-26T02:04:35.889Z,1008.09
2022-12-26T02:08:35.451Z,1008.2
2022-12-26T02:13:12.089Z,1008.07
2022-12-26T02:16:35.752Z,1008.02
2022-12-26T02:20:35.480Z,1007.97
2022-12-26T02:24:35.068Z,1007.92
2022-12-26T02:28:35.714Z,1007.77
2022-12-26T02:32:35.708Z,1007.87
2022-12-26T02:36:35.087Z,1007.8
2022-12-26T02:40:35.972Z,1007.84
2022-12-26T02:44:35.405Z,1007.77
2022-12-26T02:48:35.176Z,1007.91
2022-12-26T02:52:35.981Z,1007.9
2022-12-26T02:56:35.912Z,1007.94
2022-12-26T03:00:39.336Z,1007.91
2022-12-26T03:04:35.332Z,1007.89
2022-12-26T03:08:35.102Z,1007.97
2022-12-26T03:12:35.955Z,1008.04
2022-12-26T03:16:36.084Z,1007.92
2022-12-26T03:20:35.884Z,1007.89
2022-12-26T03:24:35.370Z,1007.88
2022-12-26T03:28:36.736Z,1007.72
2022-12-26T03:32:35.906Z,1007.66
2022-12-26T03:36:35.621Z,1007.74
2022-12-26T03:40:35.271Z,1007.71
2022-12-26T03:44:35.175Z,1007.66
2022-12-26T03:48:35.960Z,1007.64
2022-12-26T03:52:35.791Z,1007.81
2022-12-26T03:56:35.266Z,1007.67
2022-12-26T04:00:35.576Z,1007.8
2022-12-26T04:04:35.300Z,1007.74
2022-12-26T04:08:41.707Z,1007.73
2022-12-26T04:12:35.999Z,1007.75
2022-12-26T04:16:36.007Z,1007.8
2022-12-26T04:20:35.582Z,1007.81
2022-12-26T04:24:35.185Z,1007.75
2022-12-26T04:28:35.952Z,1007.72
2022-12-26T04:32:35.448Z,1007.78
2022-12-26T04:36:35.187Z,1007.95
2022-12-26T04:40:36.138Z,1007.81
2022-12-26T04:44:35.652Z,1007.89
2022-12-26T04:48:35.434Z,1007.74
2022-12-26T04:52:35.397Z,1007.71
2022-12-26T04:56:35.139Z,1007.6
2022-12-26T05:00:38.458Z,1007.4
2022-12-26T05:04:35.318Z,1007.47
2022-12-26T05:08:35.163Z,1007.53
2022-12-26T05:12:35.866Z,1007.42
2022-12-26T05:16:36.046Z,1007.59
2022-12-26T05:20:35.717Z,1007.53
2022-12-26T05:24:35.734Z,1007.48
2022-12-26T05:28:35.279Z,1007.4
2022-12-26T05:32:35.887Z,1007.59
2022-12-26T05:36:35.556Z,1007.61
2022-12-26T05:40:35.271Z,1007.66
2022-12-26T05:44:35.199Z,1007.71
2022-12-26T05:48:35.859Z,1007.5
2022-12-26T05:52:35.708Z,1007.62
2022-12-26T05:56:35.681Z,1007.79
2022-12-26T06:00:41.060Z,1007.78
2022-12-26T06:04:36.166Z,1007.89
2022-12-26T06:08:35.623Z,1007.8
2022-12-26T06:12:35.591Z,1007.71
2022-12-26T06:16:35.728Z,1007.81
2022-12-26T06:20:36.066Z,1007.8
2022-12-26T06:24:35.861Z,1007.79
2022-12-26T06:28:35.494Z,1007.66
2022-12-26T06:32:35.433Z,1007.69
2022-12-26T06:36:35.866Z,1007.63
2022-12-26T06:40:35.607Z,1007.62
2022-12-26T06:44:41.107Z,1007.69
2022-12-26T06:48:35.168Z,1007.71
2022-12-26T06:52:35.944Z,1007.77
2022-12-26T06:56:35.658Z,1007.64
2022-12-26T07:00:38.716Z,1007.52
2022-12-26T07:04:35.589Z,1007.56
2022-12-26T07:08:35.320Z,1007.64
2022-12-26T07:12:36.070Z,1007.52
2022-12-26T07:16:35.838Z,1007.51
2022-12-26T07:20:35.183Z,1007.57
2022-12-26T07:24:35.967Z,1007.66
2022-12-26T07:28:35.468Z,1007.68
2022-12-26T07:32:35.934Z,1007.71
2022-12-26T07:36:35.620Z,1007.76
2022-12-26T07:40:35.433Z,1007.83
2022-12-26T07:44:35.081Z,1007.85
2022-12-26T07:48:35.925Z,1008.06
2022-12-26T07:52:35.371Z,1008.23
2022-12-26T07:56:36.017Z,1008.3
2022-12-26T08:00:39.092Z,1008.58
2022-12-26T08:04:36.122Z,1008.51
2022-12-26T08:08:35.593Z,1008.53
2022-12-26T08:12:35.005Z,1008.52
2022-12-26T08:16:36.027Z,1008.75
2022-12-26T08:20:35.246Z,1008.74
2022-12-26T08:24:35.045Z,1008.96
2022-12-26T08:28:35.766Z,1009.1
2022-12-26T08:32:37.253Z,1009.23
2022-12-26T08:36:35.975Z,1009.44
2022-12-26T08:40:55.048Z,1009.4
2022-12-26T08:45:01.212Z,1009.61
2022-12-26T08:48:35.264Z,1009.7
2022-12-26T08:52:35.030Z,1009.88
2022-12-26T08:56:35.700Z,1010.13
2022-12-26T09:00:38.244Z,1010.34
2022-12-26T09:04:35.082Z,1010.52
2022-12-26T09:08:35.968Z,1010.7
2022-12-26T09:12:35.720Z,1010.81
2022-12-26T09:16:39.176Z,1010.9
2022-12-26T09:20:35.392Z,1010.99
2022-12-26T09:24:36.130Z,1011.33
2022-12-26T09:28:35.927Z,1011.27
2022-12-26T09:32:35.757Z,1011.34
2022-12-26T09:36:40.196Z,1011.55
2022-12-26T09:40:35.855Z,1011.61
2022-12-26T09:44:35.566Z,1011.71
2022-12-26T09:48:36.065Z,1011.64
2022-12-26T09:52:35.864Z,1011.74
2022-12-26T09:57:17.581Z,1011.85
2022-12-26T10:00:40.888Z,1011.94
2022-12-26T10:04:41.402Z,1011.88
2022-12-26T10:08:35.627Z,1011.94
2022-12-26T10:12:35.607Z,1011.9
2022-12-26T10:16:35.653Z,1012.04
2022-12-26T10:20:35.987Z,1012
2022-12-26T10:24:35.744Z,1012.15
2022-12-26T10:28:35.605Z,1012.27
2022-12-26T10:32:39.571Z,1012.26
2022-12-26T10:36:35.818Z,1012.36
2022-12-26T10:40:35.379Z,1012.42
2022-12-26T10:44:39.460Z,1012.51
2022-12-26T10:48:35.614Z,1012.53
2022-12-26T10:52:35.364Z,1012.63
2022-12-26T10:56:40.765Z,1012.54
2022-12-26T11:00:38.816Z,1012.65
2022-12-26T11:05:48.361Z,1012.62
2022-12-26T11:08:40.782Z,1012.73
2022-12-26T11:12:35.060Z,1012.95
2022-12-26T11:16:36.048Z,1012.95
2022-12-26T11:20:35.576Z,1012.98
2022-12-26T11:24:35.208Z,1013.05
2022-12-26T11:28:35.832Z,1013.06
2022-12-26T11:32:35.612Z,1013.12
2022-12-26T11:36:35.220Z,1013.22
2022-12-26T11:40:36.208Z,1013.11
2022-12-26T11:44:35.615Z,1013.36
2022-12-26T11:48:35.198Z,1013.22
2022-12-26T11:52:35.940Z,1013.21
2022-12-26T11:56:35.740Z,1013.39
2022-12-26T12:00:40.461Z,1013.38
2022-12-26T12:04:35.279Z,1013.47
2022-12-26T12:08:35.408Z,1013.63
2022-12-26T12:12:35.745Z,1013.49
2022-12-26T12:16:36.122Z,1013.46
2022-12-26T12:20:35.234Z,1013.58
2022-12-26T12:24:35.866Z,1013.57
2022-12-26T12:28:35.301Z,1013.61
2022-12-26T12:32:38.545Z,1013.74
2022-12-26T12:36:35.604Z,1013.79
2022-12-26T12:40:35.580Z,1013.68
2022-12-26T12:44:35.227Z,1013.82
2022-12-26T12:48:35.084Z,1013.93
2022-12-26T12:52:35.664Z,1014.02
2022-12-26T12:56:41.787Z,1014.08
2022-12-26T13:00:38.578Z,1014.17
2022-12-26T13:04:35.328Z,1014.07
2022-12-26T13:08:35.926Z,1014.13
2022-12-26T13:12:35.808Z,1014.09
2022-12-26T13:16:36.050Z,1014.19
2022-12-26T13:20:36.691Z,1014.14
2022-12-26T13:24:35.247Z,1014.23
2022-12-26T13:28:35.206Z,1014.24
2022-12-26T13:32:35.896Z,1014.4
2022-12-26T13:36:35.777Z,1014.35
2022-12-26T13:40:35.570Z,1014.43
2022-12-26T13:44:35.391Z,1014.48
2022-12-26T13:48:35.849Z,1014.58
2022-12-26T13:52:35.641Z,1014.58
2022-12-26T13:56:35.180Z,1014.51
2022-12-26T14:00:38.686Z,1014.45
2022-12-26T14:04:36.039Z,1014.55
2022-12-26T14:08:35.999Z,1014.72
2022-12-26T14:12:35.827Z,1014.72
2022-12-26T14:16:35.630Z,1014.74
2022-12-26T14:20:39.494Z,1014.85
2022-12-26T14:24:35.659Z,1014.81
2022-12-26T14:28:35.518Z,1014.85
2022-12-26T14:32:35.249Z,1014.9
2022-12-26T14:36:35.684Z,1014.96
2022-12-26T14:40:35.430Z,1015.02
2022-12-26T14:44:35.065Z,1014.97
2022-12-26T14:48:35.914Z,1015.02
2022-12-26T14:52:35.356Z,1015.08
2022-12-26T14:56:35.117Z,1015.14
2022-12-26T15:00:38.854Z,1015.13
2022-12-26T15:04:35.912Z,1015.09
2022-12-26T15:08:35.819Z,1015.17
2022-12-26T15:12:35.404Z,1015.21
2022-12-26T15:16:36.081Z,1015.19
2022-12-26T15:20:35.805Z,1015.23
2022-12-26T15:25:20.538Z,1015.21
2022-12-26T15:28:38.511Z,1015.28
2022-12-26T15:32:36.094Z,1015.36
2022-12-26T15:36:37.645Z,1015.42
2022-12-26T15:40:35.470Z,1015.37
2022-12-26T15:44:35.182Z,1015.36
2022-12-26T15:48:35.879Z,1015.54
2022-12-26T15:52:35.728Z,1015.5
2022-12-26T15:56:35.286Z,1015.59
2022-12-26T16:00:39.705Z,1015.79
2022-12-26T16:04:35.608Z,1015.61
2022-12-26T16:08:35.409Z,1015.62
2022-12-26T16:12:35.150Z,1015.68
2022-12-26T16:16:36.128Z,1015.72
2022-12-26T16:20:41.397Z,1015.72
2022-12-26T16:24:35.392Z,1015.7
2022-12-26T16:28:35.146Z,1015.73
2022-12-26T16:32:35.801Z,1015.65
2022-12-26T16:36:35.472Z,1015.75
2022-12-26T16:40:35.347Z,1015.8
2022-12-26T16:44:41.626Z,1015.68
2022-12-26T16:48:36.057Z,1015.75
2022-12-26T16:52:39.251Z,1015.77
2022-12-26T16:56:35.385Z,1015.85
2022-12-26T17:00:38.375Z,1015.85
2022-12-26T17:04:35.318Z,1015.81
2022-12-26T17:08:35.948Z,1015.85
2022-12-26T17:12:35.585Z,1015.89
2022-12-26T17:16:35.399Z,1015.97
2022-12-26T17:20:35.293Z,1016
2022-12-26T17:24:35.911Z,1016.13
2022-12-26T17:28:35.844Z,1016.11
2022-12-26T17:32:35.523Z,1016.14
2022-12-26T17:37:41.812Z,1016.18
2022-12-26T17:40:37.453Z,1016.18
2022-12-26T17:44:35.841Z,1016.28
2022-12-26T17:48:35.783Z,1016.29
2022-12-26T17:52:36.123Z,1016.28
2022-12-26T17:56:35.852Z,1016.4
2022-12-26T18:00:38.393Z,1016.36
2022-12-26T18:04:35.547Z,1016.34
2022-12-26T18:08:35.380Z,1016.38
2022-12-26T18:12:35.301Z,1016.53
2022-12-26T18:16:36.220Z,1016.5
2022-12-26T18:20:35.633Z,1016.66
2022-12-26T18:24:35.395Z,1016.69
2022-12-26T18:28:35.110Z,1016.64
2022-12-26T18:32:36.023Z,1016.59
2022-12-26T18:36:41.586Z,1016.82
2022-12-26T18:40:35.655Z,1016.84
2022-12-26T18:44:35.229Z,1016.92
2022-12-26T18:48:35.945Z,1016.9
2022-12-26T18:52:40.725Z,1016.97
2022-12-26T18:56:35.166Z,1017
2022-12-26T19:00:41.254Z,1017.07
2022-12-26T19:04:35.424Z,1017.18
2022-12-26T19:08:36.121Z,1017.16
2022-12-26T19:12:35.581Z,1017.18
2022-12-26T19:16:35.480Z,1017.25
2022-12-26T19:20:39.086Z,1017.2
2022-12-26T19:24:35.280Z,1017.3
2022-12-26T19:28:36.054Z,1017.26
2022-12-26T19:32:35.536Z,1017.26
2022-12-26T19:36:35.569Z,1017.26
2022-12-26T19:40:36.761Z,1017.25
2022-12-26T19:44:35.916Z,1017.19
2022-12-26T19:48:35.512Z,1017.25
2022-12-26T19:52:35.275Z,1017.28
2022-12-26T19:56:35.904Z,1017.36
2022-12-26T20:00:36.420Z,1017.39
2022-12-26T20:04:35.113Z,1017.33
2022-12-26T20:08:35.579Z,1017.48
2022-12-26T20:12:35.275Z,1017.46
2022-12-26T20:17:25.612Z,1017.37
2022-12-26T20:20:35.231Z,1017.42
2022-12-26T20:24:35.866Z,1017.34
2022-12-26T20:28:35.625Z,1017.39
2022-12-26T20:32:36.059Z,1017.42
2022-12-26T20:36:35.641Z,1017.6
2022-12-26T20:40:36.837Z,1017.58
2022-12-26T20:44:35.829Z,1017.71
2022-12-26T20:48:35.494Z,1017.71
2022-12-26T20:52:35.570Z,1017.76
2022-12-26T20:56:35.640Z,1017.81
2022-12-26T21:00:38.175Z,1017.81
2022-12-26T21:04:36.017Z,1017.97
2022-12-26T21:08:35.822Z,1017.96
2022-12-26T21:12:35.483Z,1017.91
2022-12-26T21:16:42.452Z,1017.9
2022-12-26T21:20:36.008Z,1018.03
2022-12-26T21:24:35.579Z,1018.03
2022-12-26T21:28:35.198Z,1018.15
2022-12-26T21:32:35.677Z,1018.11
2022-12-26T21:36:35.314Z,1018.24
2022-12-26T21:40:35.904Z,1018.12
2022-12-26T21:44:35.800Z,1018.23
2022-12-26T21:48:35.295Z,1018.2
2022-12-26T21:52:35.989Z,1018.19
2022-12-26T21:56:35.603Z,1018.28
2022-12-26T22:00:38.541Z,1018.52
2022-12-26T22:04:36.134Z,1018.38
2022-12-26T22:08:35.855Z,1018.29
2022-12-26T22:12:35.664Z,1018.47
2022-12-26T22:16:35.461Z,1018.57
2022-12-26T22:20:36.150Z,1018.46
2022-12-26T22:24:35.787Z,1018.59
2022-12-26T22:28:35.657Z,1018.69
2022-12-26T22:32:35.463Z,1018.56
2022-12-26T22:36:35.116Z,1018.54
2022-12-26T22:40:36.141Z,1018.62
2022-12-26T22:44:35.581Z,1018.55
2022-12-26T22:48:35.205Z,1018.7
2022-12-26T22:52:38.650Z,1018.77
2022-12-26T22:56:35.795Z,1018.71
2022-12-26T23:00:45.782Z,1018.76
2022-12-26T23:04:35.816Z,1018.76
2022-12-26T23:08:35.588Z,1018.79
2022-12-26T23:12:35.256Z,1018.86
2022-12-26T23:16:36.165Z,1018.8
2022-12-26T23:20:35.741Z,1018.95
2022-12-26T23:24:35.403Z,1019.04
2022-12-26T23:28:35.180Z,1018.96
2022-12-26T23:32:35.967Z,1018.95
2022-12-26T23:36:35.277Z,1018.99
2022-12-26T23:40:35.324Z,1019.06
2022-12-26T23:44:35.737Z,1019.08
2022-12-26T23:48:35.462Z,1019.04
2022-12-26T23:52:41.669Z,1019.08
2022-12-26T23:56:35.955Z,1019.17
